Time;durP1;ratioP1;P1;durP2;ratioP2;P2;SDS_P1;SDS_P2;PMS_P1;PMS_P2;Temp;Humidity;BMP_temperature;BMP_pressure;BME280_temperature;BME280_humidity;BME280_pressure;Samples;Min_cycle;Max_cycle;Signal;HPM_P1;HPM_P2
2021/04/13 00:03:08;;;;;;;12.53;10.33;;;;;;;3.98;82.24;101682.09;4938553;58;1143500;-72
2021/04/13 00:08:35;;;;;;;17.77;10.13;;;;;;;4.01;82.25;101680.70;4938468;58;1140757;-71
2021/04/13 00:14:01;;;;;;;19.43;10.63;;;;;;;4.00;82.43;101684.22;4938385;58;1147551;-73
2021/04/13 00:19:46;;;;;;;17.17;9.00;;;;;;;3.98;82.54;101675.55;4937994;58;1138644;-73
2021/04/13 00:25:18;;;;;;;20.88;11.95;;;;;;;4.01;82.44;101675.91;4854787;60;1136514;-75
2021/04/13 00:30:49;;;;;;;21.93;12.78;;;;;;;4.04;82.46;101677.98;4854092;59;1140975;-74
2021/04/13 00:36:18;;;;;;;19.60;11.88;;;;;;;4.11;82.45;101683.89;4854444;59;1140876;-73
2021/04/13 00:41:53;;;;;;;16.80;11.70;;;;;;;4.19;82.69;101680.11;4854478;59;1138713;-71
2021/04/13 00:47:20;;;;;;;;;;;;;;;4.13;82.34;101685.53;4858147;59;1138926;-75
2021/04/13 00:52:53;;;;;;;21.57;11.50;;;;;;;4.13;82.29;101685.98;4867965;59;973993;-72
2021/04/13 00:58:40;;;;;;;18.00;12.28;;;;;;;4.15;82.23;101680.25;4854945;59;1138687;-73
2021/04/13 01:04:21;;;;;;;20.80;11.73;;;;;;;4.15;82.37;101676.32;4936440;58;1138758;-71
2021/04/13 01:09:54;;;;;;;21.67;13.37;;;;;;;4.11;82.52;101680.83;4938358;58;1138384;-76
2021/04/13 01:15:20;;;;;;;19.87;12.50;;;;;;;4.12;82.45;101678.61;4938288;58;1138830;-70
2021/04/13 01:20:58;;;;;;;19.63;13.23;;;;;;;4.13;82.34;101675.51;4917200;58;1140703;-71
2021/04/13 01:26:24;;;;;;;28.35;14.35;;;;;;;4.15;82.40;101681.11;4935814;58;1140760;-74
2021/04/13 01:31:55;;;;;;;30.87;17.23;;;;;;;4.11;82.52;101676.04;4938899;58;1138816;-75
2021/04/13 01:37:38;;;;;;;27.03;15.47;;;;;;;4.10;82.67;101680.87;4938495;58;1138597;-71
2021/04/13 01:42:58;;;;;;;22.20;14.60;;;;;;;4.10;82.78;101680.42;4936251;58;1138582;-73
2021/04/13 01:48:25;;;;;;;20.87;11.87;;;;;;;4.13;82.51;101678.98;4938478;58;1138728;-72
2021/04/13 01:53:51;;;;;;;19.53;12.50;;;;;;;4.15;82.51;101677.63;4938415;58;1140560;-73
2021/04/13 01:59:21;;;;;;;21.67;13.97;;;;;;;4.17;82.37;101679.30;4938588;58;1140847;-73
2021/04/13 02:04:51;;;;;;;25.70;15.30;;;;;;;4.25;82.99;101676.45;4938445;58;1138566;-76
2021/04/13 02:10:31;;;;;;;27.52;15.95;;;;;;;4.29;82.75;101681.10;4939061;58;1138607;-75
2021/04/13 02:16:00;;;;;;;25.50;16.53;;;;;;;4.20;82.53;101675.73;4937129;58;1138680;-73
2021/04/13 02:21:43;;;;;;;27.37;16.93;;;;;;;4.18;82.61;101681.02;4938585;58;1138630;-73
2021/04/13 02:27:18;;;;;;;25.10;15.42;;;;;;;4.14;82.18;101678.53;4938675;58;1138510;-69
2021/04/13 02:39:57;;;;;;;23.73;14.63;;;;;;;4.07;82.14;101671.34;4906216;58;1140776;-75
2021/04/13 02:45:36;;;;;;;18.67;13.55;;;;;;;4.00;82.22;101676.36;4906771;59;1138815;-74
2021/04/13 02:51:07;;;;;;;22.73;15.10;;;;;;;3.94;82.41;101675.72;4906458;58;1138563;-72
2021/04/13 02:56:38;;;;;;;22.23;14.30;;;;;;;3.89;82.32;101678.47;4906230;59;1138816;-74
2021/04/13 03:02:10;;;;;;;26.93;12.80;;;;;;;3.89;82.32;101678.47;4906131;58;1140528;-71
2021/04/13 03:07:38;;;;;;;28.20;15.50;;;;;;;3.86;82.19;101679.42;4906296;58;1140566;-73
2021/04/13 03:13:11;;;;;;;25.20;14.73;;;;;;;3.83;82.43;101684.74;4906177;58;1138543;-74
2021/04/13 03:18:44;;;;;;;25.02;15.45;;;;;;;3.78;82.37;101680.13;4906044;58;1138285;-74
2021/04/13 03:24:12;;;;;;;24.67;13.77;;;;;;;3.73;82.44;101682.47;4906430;58;1138477;-75
2021/04/13 03:29:53;;;;;;;22.40;12.97;;;;;;;3.71;82.53;101682.51;4906273;58;1138282;-72
2021/04/13 03:35:21;;;;;;;20.00;11.55;;;;;;;3.73;82.34;101681.16;4906265;58;1138443;-72
2021/04/13 03:40:50;;;;;;;21.60;9.50;;;;;;;3.73;82.11;101685.94;4936507;58;1140753;-73
2021/04/13 03:46:15;;;;;;;21.00;10.58;;;;;;;3.72;81.76;101681.61;4944545;58;1138539;-76
2021/04/13 03:51:47;;;;;;;16.40;10.28;;;;;;;3.69;81.78;101690.85;4969184;58;1138650;-75
2021/04/13 03:57:13;;;;;;;13.75;7.58;;;;;;;3.64;81.80;101690.16;4980254;58;1138503;-72
2021/04/13 04:02:39;;;;;;;16.10;8.00;;;;;;;3.60;81.71;101695.06;4981266;58;1136471;-75
2021/04/13 04:08:08;;;;;;;14.60;8.70;;;;;;;3.54;81.59;101686.09;4983553;58;1136730;-77
2021/04/13 04:13:51;;;;;;;17.00;8.17;;;;;;;3.49;81.72;101698.02;4945228;58;1136464;-75
2021/04/13 04:19:23;;;;;;;18.23;9.03;;;;;;;3.45;81.81;101695.07;4925211;58;1136545;-74
2021/04/13 04:24:51;;;;;;;19.47;9.60;;;;;;;3.46;81.78;101692.86;4924899;58;1138668;-73
2021/04/13 04:30:35;;;;;;;22.58;9.05;;;;;;;3.53;82.25;101689.59;4979712;58;1136445;-71
2021/04/13 04:36:01;;;;;;;15.60;7.97;;;;;;;3.64;82.20;101692.77;4944325;58;1136607;-73
2021/04/13 04:41:44;;;;;;;68.72;41.77;;;;;;;3.61;81.72;101707.70;4906329;58;1136549;-77
2021/04/13 04:47:36;;;;;;;16.00;9.43;;;;;;;3.57;81.57;101712.60;4958821;58;1150342;-76
2021/04/13 04:53:01;;;;;;;11.18;7.40;;;;;;;3.50;81.73;101718.48;4930224;58;1136429;-75
2021/04/13 04:58:27;;;;;;;15.40;8.03;;;;;;;3.48;81.94;101730.30;4969520;58;1136588;-73
2021/04/13 05:03:52;;;;;;;13.70;7.70;;;;;;;3.47;81.79;101735.56;4984845;58;1136561;-75
2021/04/13 05:09:18;;;;;;;19.17;7.78;;;;;;;3.43;82.04;101749.63;4976466;58;1136661;-75
2021/04/13 05:14:44;;;;;;;17.57;8.60;;;;;;;3.47;82.08;101759.11;4972653;58;1136705;-73
2021/04/13 05:20:10;;;;;;;13.00;5.80;;;;;;;3.43;81.91;101753.09;4981909;58;1136566;-74
2021/04/13 05:25:35;;;;;;;13.70;6.67;;;;;;;3.42;82.04;101759.22;5016565;58;1136558;-70
2021/04/13 05:31:02;;;;;;;12.20;6.97;;;;;;;3.40;81.88;101755.80;5017448;58;1136464;-75
2021/04/13 05:36:28;;;;;;;11.87;6.13;;;;;;;3.38;82.10;101760.20;4973298;58;1136526;-73
2021/04/13 05:41:56;;;;;;;16.30;8.17;;;;;;;3.44;82.28;101760.05;4911316;59;1136280;-73
2021/04/13 05:47:23;;;;;;;18.87;7.28;;;;;;;3.52;82.17;101762.42;4927453;59;1136394;-77
2021/04/13 05:52:49;;;;;;;15.43;7.37;;;;;;;3.59;82.20;101756.13;4858013;60;1136194;-75
2021/04/13 05:58:27;;;;;;;17.90;8.40;;;;;;;3.65;81.99;101759.03;4858167;60;1136738;-74
2021/04/13 06:03:52;;;;;;;7.83;4.43;;;;;;;3.74;82.35;101758.30;4857746;60;1136406;-71
2021/04/13 06:09:18;;;;;;;15.40;8.18;;;;;;;3.78;81.68;101765.16;4857738;60;1134421;-76
2021/04/13 06:14:43;;;;;;;12.00;5.73;;;;;;;3.79;81.30;101773.42;4857636;60;1136541;-72
2021/04/13 06:20:10;;;;;;;10.65;6.33;;;;;;;3.80;81.13;101779.52;4864036;60;1136432;-74
2021/04/13 06:25:35;;;;;;;17.27;6.47;;;;;;;3.77;81.20;101779.59;4850109;60;1136461;-74
2021/04/13 06:31:01;;;;;;;12.43;6.67;;;;;;;3.81;81.30;101782.54;4857897;60;1136619;-76
2021/04/13 06:36:29;;;;;;;8.75;3.72;;;;;;;3.90;81.36;101787.48;4857524;60;1136645;-76
2021/04/13 06:42:27;;;;;;;11.63;5.27;;;;;;;4.08;81.68;101787.39;4900643;58;1134318;-78
2021/04/13 06:48:25;;;;;;;10.67;4.93;;;;;;;4.26;81.04;101790.76;4907344;59;1136551;-77
2021/04/13 06:54:30;;;;;;;11.80;5.93;;;;;;;4.38;80.79;101784.27;4906896;59;1136666;-76
2021/04/13 07:00:32;;;;;;;18.92;7.92;;;;;;;4.59;81.00;101780.94;4907604;58;1136299;-74
2021/04/13 07:06:07;;;;;;;11.65;5.10;;;;;;;4.76;81.04;101786.94;4906576;59;1136436;-74
2021/04/13 07:11:42;;;;;;;15.73;6.53;;;;;;;4.94;79.29;101791.57;4907863;58;1136544;-77
2021/04/13 07:17:43;;;;;;;11.70;6.07;;;;;;;4.99;79.32;101790.11;4907330;59;1136429;-77
2021/04/13 07:23:24;;;;;;;9.17;5.23;;;;;;;5.01;78.84;101794.41;4915013;59;1136921;-75
2021/04/13 07:29:14;;;;;;;9.30;4.50;;;;;;;5.08;78.44;101800.27;4915010;59;1134387;-79
2021/04/13 07:34:42;;;;;;;10.13;5.57;;;;;;;5.16;78.58;101800.88;4913752;59;1134299;-76
2021/04/13 07:40:14;;;;;;;9.77;5.37;;;;;;;5.32;78.46;101806.00;4904560;59;1138796;-77
2021/04/13 07:46:00;;;;;;;10.53;5.70;;;;;;;5.47;78.94;101804.59;4860182;59;1134359;-76
2021/04/13 07:51:47;;;;;;;9.08;5.53;;;;;;;5.54;77.78;101816.56;4859922;59;1136850;-77
2021/04/13 07:57:26;;;;;;;12.97;4.57;;;;;;;5.49;77.89;101821.14;4893977;58;1134684;-80
2021/04/13 08:02:57;;;;;;;9.03;5.60;;;;;;;5.48;77.44;101822.05;4960920;58;1136419;-79
2021/04/13 08:08:41;;;;;;;10.18;5.45;;;;;;;5.48;76.79;101816.80;4961901;58;1134342;-76
2021/04/13 08:14:22;;;;;;;13.85;6.47;;;;;;;5.48;76.79;101816.80;4961837;58;1136574;-75
2021/04/13 08:20:07;;;;;;;14.57;7.00;;;;;;;5.48;76.99;101824.22;4961587;58;1136680;-78
2021/04/13 08:25:39;;;;;;;13.03;6.77;;;;;;;5.54;76.80;101792.95;5021661;57;1136374;-73
2021/04/13 08:37:13;;;;;;;13.17;5.43;;;;;;;5.88;77.11;101809.63;4848820;59;1136442;-79
2021/04/13 08:42:48;;;;;;;9.83;5.40;;;;;;;5.97;74.94;101815.41;4870609;59;1136238;-78
2021/04/13 08:48:18;;;;;;;12.00;5.43;;;;;;;6.08;73.31;101807.14;4865213;59;1134497;-79
2021/04/13 08:53:49;;;;;;;10.57;5.27;;;;;;;6.16;73.48;101800.27;4911004;59;1136708;-76
2021/04/13 08:59:18;;;;;;;12.87;5.00;;;;;;;6.27;73.25;101798.06;4889484;58;1136524;-78
2021/04/13 09:04:44;;;;;;;9.87;4.20;;;;;;;6.44;73.10;101785.12;4852934;60;1136445;-79
2021/04/13 09:10:46;;;;;;;9.47;4.30;;;;;;;6.65;69.30;101782.09;4860466;59;1134365;-77
2021/04/13 09:16:18;;;;;;;3.95;2.72;;;;;;;6.96;72.01;101785.61;4889896;59;1134615;-75
2021/04/13 09:21:52;;;;;;;4.17;2.50;;;;;;;7.23;68.45;101784.42;4882879;59;1134458;-77
2021/04/13 09:27:40;;;;;;;7.33;3.20;;;;;;;7.33;65.60;101784.89;4891721;59;1134621;-78
2021/04/13 09:33:22;;;;;;;4.87;2.27;;;;;;;7.24;63.39;101789.22;4895629;59;1134288;-75
2021/04/13 09:39:18;;;;;;;4.90;2.60;;;;;;;7.27;59.20;101791.27;4893894;59;1134528;-77
2021/04/13 09:44:50;;;;;;;7.93;3.30;;;;;;;7.32;58.79;101785.81;4917862;59;1134314;-81
2021/04/13 09:50:37;;;;;;;1.77;1.53;;;;;;;7.28;60.82;101782.91;4906940;59;1134374;-77
2021/04/13 09:56:31;;;;;;;8.60;3.30;;;;;;;7.34;58.87;101778.67;4935885;58;1134358;-80
2021/04/13 10:02:22;;;;;;;2.30;1.23;;;;;;;7.64;63.32;101768.55;4936166;58;1134344;-79
2021/04/13 10:07:58;;;;;;;1.92;1.27;;;;;;;8.00;55.92;101772.14;4935615;58;1134382;-78
2021/04/13 10:14:01;;;;;;;2.27;0.60;;;;;;;8.01;54.26;101760.67;4934212;59;1134370;-75
2021/04/13 10:19:48;;;;;;;1.15;1.05;;;;;;;7.91;51.65;101765.99;4938033;58;1134390;-79
2021/04/13 10:25:44;;;;;;;2.67;1.17;;;;;;;7.85;54.29;101758.83;4936261;59;1134130;-76
2021/04/13 10:31:37;;;;;;;3.30;2.03;;;;;;;8.18;53.57;101753.29;4937988;58;1134222;-78
2021/04/13 10:37:40;;;;;;;3.07;1.37;;;;;;;8.44;54.07;101750.27;4895453;58;1134846;-78
2021/04/13 10:43:43;;;;;;;2.93;1.20;;;;;;;8.61;54.94;101741.52;4859548;59;1134589;-77
2021/04/13 10:49:36;;;;;;;1.57;0.90;;;;;;;8.63;47.85;101752.86;4856094;59;1134376;-75
2021/04/13 10:55:13;;;;;;;2.07;1.10;;;;;;;8.83;53.08;101745.27;4856005;59;1134360;-77
2021/04/13 11:01:30;;;;;;;2.17;0.67;;;;;;;8.93;49.13;101741.69;4881718;59;1134410;-78
2021/04/13 11:07:12;;;;;;;2.17;1.30;;;;;;;9.00;46.95;101743.95;4937577;58;1134609;-77
2021/04/13 11:13:05;;;;;;;1.20;0.97;;;;;;;9.15;51.96;101731.27;4937777;58;1134115;-78
2021/04/13 11:19:11;;;;;;;3.27;1.50;;;;;;;9.41;49.10;101724.61;4937722;58;1136639;-76
2021/04/13 11:24:57;;;;;;;1.50;1.20;;;;;;;9.59;51.55;101710.88;4935404;58;1136430;-74
2021/04/13 11:30:33;;;;;;;1.47;1.25;;;;;;;9.72;49.73;101720.30;4858010;59;1136706;-77
2021/04/13 11:36:16;;;;;;;1.33;1.00;;;;;;;9.72;50.01;101706.62;4884638;58;1136589;-79
2021/04/13 11:42:12;;;;;;;1.65;1.12;;;;;;;9.82;50.54;101708.28;4859848;59;1136526;-74
2021/04/13 11:47:56;;;;;;;2.73;1.00;;;;;;;9.88;49.92;101706.63;4837097;59;1136462;-77
2021/04/13 11:53:48;;;;;;;2.10;1.05;;;;;;;9.98;46.52;101703.84;4819215;59;1136889;-76
2021/04/13 11:59:21;;;;;;;4.10;1.20;;;;;;;10.08;47.56;101705.52;4818119;59;1136699;-75
2021/04/13 12:04:52;;;;;;;3.37;1.30;;;;;;;10.22;46.03;101701.66;4818636;58;1138594;-75
2021/04/13 12:10:38;;;;;;;1.00;1.00;;;;;;;10.31;46.52;101694.50;4830899;59;1144053;-76
2021/04/13 12:16:05;;;;;;;1.07;0.97;;;;;;;10.49;44.07;101698.73;4841253;59;1138535;-75
2021/04/13 12:21:40;;;;;;;4.77;1.17;;;;;;;10.49;45.45;101689.94;4767092;59;1138609;-75
2021/04/13 12:27:33;;;;;;;1.70;0.80;;;;;;;10.31;45.03;101681.28;4863173;59;1138794;-78
2021/04/13 12:32:58;;;;;;;1.33;1.20;;;;;;;10.40;42.89;101686.02;4873296;59;1138644;-75
2021/04/13 12:38:51;;;;;;;1.90;1.10;;;;;;;10.39;43.71;101679.03;4878335;59;1138819;-76
2021/04/13 12:44:22;;;;;;;1.67;1.00;;;;;;;10.47;44.06;101676.80;4859260;59;1138796;-76
2021/04/13 12:49:47;;;;;;;1.27;0.80;;;;;;;10.57;46.41;101666.05;4866508;59;1138795;-80
2021/04/13 12:55:17;;;;;;;3.77;1.33;;;;;;;10.75;42.65;101665.43;5018130;58;1138495;-74
2021/04/13 13:00:49;;;;;;;2.70;1.40;;;;;;;10.61;44.88;101661.91;5019324;57;1138647;-78
2021/04/13 13:06:29;;;;;;;1.43;1.10;;;;;;;10.51;45.22;101666.43;5019400;57;1138559;-76
2021/04/13 13:12:17;;;;;;;0.60;0.60;;;;;;;10.38;44.18;101654.02;5019309;57;1138533;-77
2021/04/13 13:17:52;;;;;;;16.60;9.03;;;;;;;10.28;44.08;101648.41;4966118;58;1138529;-75
2021/04/13 13:23:28;;;;;;;3.67;1.50;;;;;;;10.11;45.07;101648.49;4938659;59;1147690;-76
2021/04/13 13:28:52;;;;;;;2.03;1.00;;;;;;;10.06;45.27;101652.74;4894462;59;1138532;-76
2021/04/13 13:34:24;;;;;;;4.42;1.50;;;;;;;10.06;48.09;101650.09;4942218;58;1138427;-77
2021/04/13 13:39:50;;;;;;;5.80;2.00;;;;;;;10.25;46.81;101649.89;4867605;59;1138951;-79
2021/04/13 13:45:31;;;;;;;8.83;3.03;;;;;;;10.18;46.45;101645.45;4967943;58;1138501;-78
2021/04/13 13:51:12;;;;;;;5.60;3.53;;;;;;;10.15;46.49;101643.41;4951017;58;1138800;-73
2021/04/13 13:56:38;;;;;;;36.73;7.23;;;;;;;10.11;46.57;101640.09;4919949;58;1138869;-77
2021/04/13 14:02:10;;;;;;;16.60;5.70;;;;;;;10.06;46.40;101629.42;4920911;58;1140857;-76
2021/04/13 14:07:36;;;;;;;81.95;49.27;;;;;;;10.05;47.50;101633.00;4918438;58;1140754;-78
2021/04/13 14:13:20;;;;;;;5.33;3.33;;;;;;;10.04;46.15;101618.08;4915100;58;1142937;-74
2021/04/13 14:18:55;;;;;;;4.87;1.07;;;;;;;9.98;45.19;101609.17;4914479;58;1138883;-76
2021/04/13 14:24:31;;;;;;;13.40;7.20;;;;;;;9.89;44.33;101615.85;4916288;58;1137196;-74
2021/04/13 14:30:00;;;;;;;70.30;42.75;;;;;;;9.87;47.11;101608.02;4915888;58;1138617;-77
2021/04/13 14:35:25;;;;;;;35.95;23.70;;;;;;;9.90;46.48;101609.63;4886089;58;1140726;-78
2021/04/13 14:40:51;;;;;;;16.40;11.43;;;;;;;9.82;46.21;101611.84;4899557;58;1141057;-79
2021/04/13 14:46:16;;;;;;;11.47;6.40;;;;;;;9.73;44.48;101617.20;4916102;58;1140905;-75
2021/04/13 14:51:42;;;;;;;30.10;16.70;;;;;;;9.69;45.33;101606.87;4932683;57;1138827;-77
2021/04/13 14:57:08;;;;;;;5.50;4.03;;;;;;;9.59;44.78;101599.95;4956062;58;1140786;-78
2021/04/13 15:02:33;;;;;;;45.23;23.95;;;;;;;9.53;45.94;101596.33;4937866;58;1136788;-77
2021/04/13 15:08:00;;;;;;;13.70;6.60;;;;;;;9.48;46.80;101601.00;4919675;58;1140536;-76
2021/04/13 15:13:25;;;;;;;18.35;13.35;;;;;;;9.49;47.16;101607.52;4908265;58;1138367;-79
2021/04/13 15:18:56;;;;;;;37.67;24.90;;;;;;;9.37;45.20;101603.39;4907744;58;1140375;-78
2021/04/13 15:24:23;;;;;;;19.33;10.63;;;;;;;9.28;46.27;101606.08;4908036;58;1141079;-74
2021/04/13 15:29:48;;;;;;;91.20;57.90;;;;;;;9.32;45.33;101601.50;4920268;58;1140655;-75
2021/04/13 15:35:21;;;;;;;43.93;25.10;;;;;;;9.29;45.62;101595.06;4934588;58;1140844;-79
2021/04/13 15:40:48;;;;;;;59.53;23.67;;;;;;;9.22;44.71;101598.48;4922005;58;1138450;-74
2021/04/13 15:46:24;;;;;;;117.00;47.63;;;;;;;9.21;46.49;101595.92;4967042;58;1138688;-75
2021/04/13 15:51:50;;;;;;;37.50;18.50;;;;;;;9.24;46.30;101590.02;4969315;58;1140617;-79
2021/04/13 15:57:14;;;;;;;49.20;24.27;;;;;;;9.31;46.17;101585.27;4971656;58;1138572;-73
2021/04/13 16:02:40;;;;;;;72.27;45.40;;;;;;;9.38;46.73;101585.30;4980770;58;1138497;-76
2021/04/13 16:08:06;;;;;;;180.03;118.67;;;;;;;9.27;46.15;101587.22;4907790;58;1138531;-76
2021/04/13 16:13:31;;;;;;;110.60;56.08;;;;;;;9.23;47.39;101592.73;4907644;58;1142644;-74
2021/04/13 16:18:57;;;;;;;131.13;48.33;;;;;;;9.24;47.43;101599.73;4944227;58;1140585;-76
2021/04/13 16:24:22;;;;;;;164.00;50.33;;;;;;;9.18;47.55;101587.70;4971274;58;1149808;-79
2021/04/13 16:29:48;;;;;;;247.73;67.97;;;;;;;9.18;47.80;101603.54;4956155;58;1140646;-75
2021/04/13 16:35:17;;;;;;;113.47;33.33;;;;;;;9.05;47.60;101597.23;4953795;58;1140731;-74
2021/04/13 16:40:48;;;;;;;146.40;36.93;;;;;;;9.01;46.84;101598.35;4973852;58;1140678;-74
2021/04/13 16:46:17;;;;;;;86.27;21.87;;;;;;;8.93;46.88;101586.88;4958844;58;1140924;-75
2021/04/13 16:51:56;;;;;;;115.57;30.13;;;;;;;8.83;46.17;101590.95;4974648;58;1138540;-74
2021/04/13 16:57:21;;;;;;;92.80;23.33;;;;;;;8.73;47.28;101581.33;5004931;58;1140957;-75
2021/04/13 17:03:22;;;;;;;54.40;15.13;;;;;;;8.70;47.71;101578.88;4997757;58;1138305;-75
2021/04/13 17:09:07;;;;;;;49.10;16.00;;;;;;;8.66;47.54;101579.12;4992648;57;1138706;-74
2021/04/13 17:14:49;;;;;;;38.90;14.60;;;;;;;8.57;47.93;101589.66;4998331;57;1138735;-74
2021/04/13 17:20:24;;;;;;;18.17;7.63;;;;;;;8.48;48.03;101594.11;5013680;58;1138500;-74
2021/04/13 17:25:49;;;;;;;28.07;10.85;;;;;;;8.34;47.75;101586.06;5010379;57;1136497;-74
2021/04/13 17:31:34;;;;;;;29.13;10.73;;;;;;;8.22;48.47;101584.02;5019775;58;1138543;-74
2021/04/13 17:37:07;;;;;;;26.40;10.10;;;;;;;8.16;47.77;101596.17;4988381;58;1138678;-74
2021/04/13 17:42:44;;;;;;;20.97;9.65;;;;;;;8.07;47.80;101594.41;4961795;58;1138482;-74
2021/04/13 17:48:13;;;;;;;17.23;7.50;;;;;;;8.02;48.18;101605.63;4992773;58;1136666;-74
2021/04/13 17:53:48;;;;;;;22.62;9.15;;;;;;;7.99;48.37;101609.73;4996189;58;1136522;-75
2021/04/13 17:59:16;;;;;;;34.53;15.33;;;;;;;7.96;48.78;101615.14;4979910;58;1136500;-75
2021/04/13 18:05:05;;;;;;;57.57;27.40;;;;;;;7.92;49.13;101632.51;4967383;58;1138554;-74
2021/04/13 18:10:35;;;;;;;23.18;11.68;;;;;;;7.87;49.21;101640.63;4943710;58;1138773;-74
2021/04/13 18:16:03;;;;;;;31.62;15.90;;;;;;;7.85;49.73;101641.62;4961369;58;1138649;-74
2021/04/13 18:21:33;;;;;;;47.55;21.15;;;;;;;7.86;49.89;101642.02;4987004;58;1138541;-75
2021/04/13 18:27:09;;;;;;;72.07;33.40;;;;;;;7.83;50.31;101636.89;4986512;58;1138481;-75
2021/04/13 18:32:44;;;;;;;43.58;17.37;;;;;;;7.87;50.62;101637.99;4984525;58;1138449;-76
2021/04/13 18:38:29;;;;;;;41.77;17.80;;;;;;;7.65;50.53;101633.34;4986936;58;1138751;-75
2021/04/13 18:44:12;;;;;;;50.90;20.03;;;;;;;7.54;51.30;101629.92;4987371;58;1138513;-79
2021/04/13 18:49:41;;;;;;;39.23;15.77;;;;;;;7.59;52.29;101629.71;4908408;59;1138761;-76
2021/04/13 18:55:24;;;;;;;31.93;12.17;;;;;;;7.43;51.78;101637.48;4819878;59;1138669;-73
2021/04/13 19:00:54;;;;;;;14.80;6.20;;;;;;;7.26;52.37;101639.57;4788907;60;1138573;-77
2021/04/13 19:06:57;;;;;;;16.02;5.55;;;;;;;7.25;52.72;101640.95;4786552;61;1136420;-73
2021/04/13 19:12:25;;;;;;;16.67;8.10;;;;;;;7.20;53.02;101641.16;4787680;61;1136294;-77
2021/04/13 19:17:57;;;;;;;14.27;7.60;;;;;;;7.19;53.46;101638.59;4835977;60;1136373;-75
2021/04/13 19:23:28;;;;;;;23.43;8.97;;;;;;;7.23;53.97;101638.39;4860694;59;1136255;-73
2021/04/13 19:29:18;;;;;;;21.53;12.00;;;;;;;7.28;54.33;101641.67;4909448;59;1137144;-74
2021/04/13 19:35:01;;;;;;;36.43;16.77;;;;;;;7.29;54.52;101642.06;4541085;63;1138605;-76
2021/04/13 19:40:26;;;;;;;35.20;17.03;;;;;;;7.26;55.05;101647.92;4650328;62;1138720;-74
2021/04/13 19:46:01;;;;;;;32.83;16.83;;;;;;;7.17;55.21;101638.69;4538815;63;1138739;-72
2021/04/13 19:51:33;;;;;;;35.40;17.20;;;;;;;7.12;55.51;101638.49;4662041;61;1138880;-72
2021/04/13 19:56:59;;;;;;;54.03;20.90;;;;;;;7.11;55.66;101639.41;4661770;61;1138601;-71
2021/04/13 20:02:31;;;;;;;49.10;20.30;;;;;;;7.06;56.00;101633.03;4695109;61;1138666;-72
2021/04/13 20:08:03;;;;;;;57.07;21.00;;;;;;;7.06;56.04;101638.30;4696297;62;1138641;-72
2021/04/13 20:13:27;;;;;;;55.67;20.83;;;;;;;7.09;56.48;101639.48;4893941;59;1138518;-76
2021/04/13 20:18:52;;;;;;;45.77;20.30;;;;;;;7.08;56.66;101634.28;4887729;59;1138329;-73
2021/04/13 20:24:37;;;;;;;46.00;19.93;;;;;;;6.94;56.33;101637.08;4890802;59;1138900;-75
2021/04/13 20:30:11;;;;;;;;;;;;;;;6.74;56.58;101634.92;4893713;59;1138825;-73
2021/04/13 20:41:39;;;;;;;50.47;18.60;;;;;;;6.75;57.72;101634.00;4935689;59;1136496;-73
2021/04/13 20:47:38;;;;;;;44.60;19.63;;;;;;;6.74;57.82;101637.55;4935112;59;1138567;-71
2021/04/13 20:53:14;;;;;;;45.83;17.35;;;;;;;6.62;57.57;101627.13;4935131;59;1138984;-74
2021/04/13 20:59:04;;;;;;;51.60;18.48;;;;;;;6.33;57.76;101625.28;4935288;59;1138618;-72
2021/04/13 21:04:39;;;;;;;47.93;18.40;;;;;;;6.21;58.14;101627.13;4846224;60;1138525;-75
2021/04/13 21:10:09;;;;;;;35.00;13.60;;;;;;;5.95;58.40;101628.66;4845917;60;1138289;-71
2021/04/13 21:15:40;;;;;;;28.87;12.73;;;;;;;5.77;58.88;101629.37;4846013;59;1138840;-76
2021/04/13 21:21:10;;;;;;;26.50;11.87;;;;;;;5.81;59.44;101635.72;4845983;59;1138639;-76
2021/04/13 21:26:39;;;;;;;33.05;11.30;;;;;;;5.86;59.66;101635.09;4837527;60;1138640;-72
2021/04/13 21:32:28;;;;;;;30.48;11.20;;;;;;;5.92;59.82;101635.34;4845786;60;1139048;-74
2021/04/13 21:38:19;;;;;;;26.30;9.63;;;;;;;5.92;59.97;101626.16;4845727;60;1138763;-76
2021/04/13 21:44:03;;;;;;;18.83;7.60;;;;;;;5.89;60.05;101628.44;4846007;60;1136586;-73
2021/04/13 21:49:32;;;;;;;23.75;8.60;;;;;;;5.83;59.97;101629.95;4846556;60;1136587;-75
2021/04/13 21:55:02;;;;;;;26.33;8.80;;;;;;;5.79;60.06;101631.48;4846548;60;1136464;-74
2021/04/13 22:00:58;;;;;;;22.50;8.40;;;;;;;5.82;60.28;101629.56;4847809;59;1136623;-76
2021/04/13 22:06:29;;;;;;;36.07;10.70;;;;;;;5.86;60.33;101635.55;4740192;60;1136638;-73
2021/04/13 22:11:55;;;;;;;26.00;9.00;;;;;;;5.90;60.58;101639.80;4737942;61;1138825;-72
2021/04/13 22:17:27;;;;;;;18.57;7.70;;;;;;;5.94;60.69;101641.39;4739783;61;1136323;-73
2021/04/13 22:22:52;;;;;;;27.47;9.27;;;;;;;5.86;60.57;101640.80;4739817;61;1136367;-72
2021/04/13 22:28:21;;;;;;;30.23;12.50;;;;;;;5.72;60.76;101641.35;4738174;61;1136536;-76
2021/04/13 22:33:51;;;;;;;28.17;12.60;;;;;;;5.64;60.97;101635.56;4739949;61;1138620;-73
2021/04/13 22:39:19;;;;;;;28.60;9.00;;;;;;;5.63;61.20;101632.55;4738118;61;1138568;-74
2021/04/13 22:44:44;;;;;;;17.37;6.85;;;;;;;5.53;61.40;101632.03;4879850;59;1136695;-73
2021/04/13 22:50:12;;;;;;;16.33;6.63;;;;;;;5.42;61.63;101632.05;4895938;59;1136472;-73
2021/04/13 22:55:42;;;;;;;21.52;7.87;;;;;;;5.30;61.95;101632.07;4895983;59;1136688;-77
2021/04/13 23:01:10;;;;;;;21.27;8.40;;;;;;;5.22;62.22;101624.93;4895855;59;1136504;-72
2021/04/13 23:06:36;;;;;;;25.57;10.10;;;;;;;5.23;62.50;101626.19;4798163;58;1136452;-73
2021/04/13 23:12:01;;;;;;;21.50;9.50;;;;;;;5.32;62.99;101614.51;4792319;60;1138497;-74
2021/04/13 23:17:27;;;;;;;17.87;7.55;;;;;;;5.43;62.97;101616.71;4799432;60;1136522;-74
2021/04/13 23:22:54;;;;;;;12.60;5.30;;;;;;;5.44;62.71;101615.34;4791830;60;1136503;-74
2021/04/13 23:28:20;;;;;;;16.20;6.63;;;;;;;5.37;62.72;101613.85;4792110;60;1136556;-75
2021/04/13 23:33:46;;;;;;;17.07;5.37;;;;;;;5.26;62.95;101601.62;4792139;60;1136725;-74
2021/04/13 23:39:10;;;;;;;16.00;5.30;;;;;;;5.22;63.17;101598.70;4792307;59;1136470;-76
2021/04/13 23:44:36;;;;;;;21.95;8.88;;;;;;;5.15;63.35;101593.31;4792041;60;1136422;-71
2021/04/13 23:50:01;;;;;;;19.67;6.10;;;;;;;5.11;63.60;101591.71;4791846;60;1136811;-75
2021/04/13 23:55:28;;;;;;;24.95;6.67;;;;;;;5.08;63.77;101598.38;4807515;60;1136898;-74
